createdAt,value
2023-08-29T00:00:58.540Z,98682.79
2023-08-29T00:03:28.497Z,98682.73
2023-08-29T00:06:02.227Z,98685.52
2023-08-29T00:08:29.448Z,98684.46
2023-08-29T00:10:57.208Z,98683.20
2023-08-29T00:13:24.625Z,98678.48
2023-08-29T00:15:52.005Z,98676.48
2023-08-29T00:18:21.864Z,98677.98
2023-08-29T00:20:51.882Z,98681.80
2023-08-29T00:23:18.666Z,98676.94
2023-08-29T00:25:46.845Z,98672.66
2023-08-29T00:28:14.028Z,98673.34
2023-08-29T00:30:44.157Z,98675.52
2023-08-29T00:33:11.960Z,98673.88
2023-08-29T00:35:39.557Z,98674.42
2023-08-29T00:38:06.898Z,98673.45
2023-08-29T00:40:33.886Z,98674.14
2023-08-29T00:43:01.246Z,98671.64
2023-08-29T00:45:30.331Z,98673.27
2023-08-29T00:47:57.140Z,98669.09
2023-08-29T00:50:24.743Z,98675.80
2023-08-29T00:52:51.414Z,98672.04
2023-08-29T00:55:18.160Z,98673.31
2023-08-29T00:57:44.871Z,98672.45
2023-08-29T01:00:13.321Z,98669.89
2023-08-29T01:02:41.176Z,98668.13
2023-08-29T01:05:07.910Z,98666.48
2023-08-29T01:07:35.200Z,98667.01
2023-08-29T01:10:02.030Z,98666.88
2023-08-29T01:12:59.057Z,98662.60
2023-08-29T01:15:27.834Z,98662.46
2023-08-29T01:18:01.077Z,98661.35
2023-08-29T01:20:30.415Z,98657.00
2023-08-29T01:23:14.943Z,98655.19
2023-08-29T01:25:48.056Z,98653.70
2023-08-29T01:28:14.729Z,98651.34
2023-08-29T01:30:41.841Z,98651.73
2023-08-29T01:33:09.897Z,98650.48
2023-08-29T01:35:47.499Z,98648.02
2023-08-29T01:38:17.947Z,98652.27
2023-08-29T01:40:45.444Z,98655.59
2023-08-29T01:43:12.105Z,98657.25
2023-08-29T01:45:39.073Z,98658.59
2023-08-29T01:48:06.628Z,98659.05
2023-08-29T01:50:33.695Z,98660.88
2023-08-29T01:53:00.934Z,98659.85
2023-08-29T01:55:28.462Z,98666.86
2023-08-29T01:57:55.258Z,98665.05
2023-08-29T02:00:24.985Z,98663.39
2023-08-29T02:02:51.792Z,98662.69
2023-08-29T02:05:18.530Z,98661.66
2023-08-29T02:07:45.264Z,98663.08
2023-08-29T02:10:12.005Z,98663.86
2023-08-29T02:12:38.823Z,98668.37
2023-08-29T02:15:07.030Z,98671.52
2023-08-29T02:17:34.106Z,98672.21
2023-08-29T02:20:00.764Z,98671.12
2023-08-29T02:22:27.358Z,98670.38
2023-08-29T02:24:54.085Z,98663.67
2023-08-29T02:27:20.831Z,98664.77
2023-08-29T02:29:47.722Z,98671.20
2023-08-29T02:32:15.434Z,98676.98
2023-08-29T02:34:42.279Z,98677.04
2023-08-29T02:37:09.006Z,98678.48
2023-08-29T02:39:35.697Z,98675.95
2023-08-29T02:42:04.147Z,98675.85
2023-08-29T02:44:30.905Z,98676.90
2023-08-29T02:46:57.530Z,98676.10
2023-08-29T02:49:24.167Z,98674.90
2023-08-29T02:51:50.918Z,98677.33
2023-08-29T02:54:18.864Z,98681.02
2023-08-29T02:56:45.471Z,98688.45
2023-08-29T02:59:12.262Z,98684.37
2023-08-29T03:01:38.978Z,98688.98
2023-08-29T03:04:05.732Z,98691.89
2023-08-29T03:06:32.591Z,98692.27
2023-08-29T03:08:59.545Z,98689.73
2023-08-29T03:11:27.191Z,98694.47
2023-08-29T03:13:54.090Z,98688.86
2023-08-29T03:16:21.812Z,98694.63
2023-08-29T03:18:48.482Z,98690.31
2023-08-29T03:21:15.236Z,98691.55
2023-08-29T03:23:41.903Z,98686.66
2023-08-29T03:26:11.284Z,98683.77
2023-08-29T03:28:38.629Z,98683.84
2023-08-29T03:31:09.581Z,98686.08
2023-08-29T03:33:36.917Z,98684.71
2023-08-29T03:36:04.159Z,98682.92
2023-08-29T03:38:30.914Z,98683.38
2023-08-29T03:40:58.181Z,98683.14
2023-08-29T03:43:28.180Z,98685.98
2023-08-29T03:45:58.861Z,98690.28
2023-08-29T03:48:29.047Z,98696.83
2023-08-29T03:50:56.894Z,98696.79
2023-08-29T03:53:23.606Z,98698.63
2023-08-29T03:55:50.851Z,98698.20
2023-08-29T03:58:17.509Z,98703.42
2023-08-29T04:00:45.177Z,98702.95
2023-08-29T04:03:12.310Z,98700.88
2023-08-29T04:05:39.502Z,98702.71
2023-08-29T04:08:06.766Z,98705.55
2023-08-29T04:10:39.024Z,98704.10
2023-08-29T04:13:06.813Z,98706.17
2023-08-29T04:15:34.478Z,98707.00
2023-08-29T04:18:02.176Z,98712.23
2023-08-29T04:20:30.156Z,98717.19
2023-08-29T04:22:57.735Z,98719.08
2023-08-29T04:25:26.746Z,98721.05
2023-08-29T04:27:53.936Z,98716.94
2023-08-29T04:30:21.200Z,98716.27
2023-08-29T04:32:51.572Z,98714.84
2023-08-29T04:35:18.726Z,98718.65
2023-08-29T04:37:51.903Z,98717.42
2023-08-29T04:40:19.011Z,98716.91
2023-08-29T04:42:45.979Z,98721.86
2023-08-29T04:45:13.669Z,98725.39
2023-08-29T04:47:41.350Z,98724.76
2023-08-29T04:50:08.570Z,98729.16
2023-08-29T04:52:35.918Z,98735.02
2023-08-29T04:55:03.494Z,98733.95
2023-08-29T04:57:30.461Z,98735.40
2023-08-29T04:59:57.286Z,98735.42
2023-08-29T05:02:24.244Z,98731.94
2023-08-29T05:04:53.182Z,98730.36
2023-08-29T05:07:19.947Z,98726.92
2023-08-29T05:09:47.598Z,98725.95
2023-08-29T05:12:14.213Z,98728.02
2023-08-29T05:14:40.984Z,98729.96
2023-08-29T05:17:10.784Z,98728.95
2023-08-29T05:19:37.749Z,98724.41
2023-08-29T05:22:04.673Z,98723.65
2023-08-29T05:24:31.700Z,98720.86
2023-08-29T05:26:58.376Z,98718.07
2023-08-29T05:29:25.293Z,98714.59
2023-08-29T05:31:51.899Z,98711.02
2023-08-29T05:34:18.695Z,98710.53
2023-08-29T05:36:47.571Z,98712.05
2023-08-29T05:39:14.729Z,98719.13
2023-08-29T05:41:41.498Z,98719.89
2023-08-29T05:44:08.201Z,98721.42
2023-08-29T05:46:35.206Z,98721.39
2023-08-29T05:49:02.120Z,98729.86
2023-08-29T05:51:29.170Z,98734.61
2023-08-29T05:53:55.827Z,98730.91
2023-08-29T05:56:22.566Z,98731.23
2023-08-29T05:58:49.245Z,98734.08
2023-08-29T06:01:16.032Z,98737.14
2023-08-29T06:03:42.970Z,98743.86
2023-08-29T06:06:10.372Z,98745.10
2023-08-29T06:08:37.162Z,98745.02
2023-08-29T06:11:04.282Z,98742.23
2023-08-29T06:13:31.234Z,98743.38
2023-08-29T06:15:58.059Z,98738.73
2023-08-29T06:18:24.813Z,98742.33
2023-08-29T06:20:51.556Z,98744.56
2023-08-29T06:23:18.691Z,98749.53
2023-08-29T06:25:45.459Z,98748.73
2023-08-29T06:28:12.202Z,98749.89
2023-08-29T06:30:39.136Z,98749.57
2023-08-29T06:33:07.114Z,98750.92
2023-08-29T06:35:38.755Z,98757.52
2023-08-29T06:38:05.807Z,98758.00
2023-08-29T06:40:33.590Z,98759.09
2023-08-29T06:43:00.420Z,98755.73
2023-08-29T06:45:27.163Z,98756.30
2023-08-29T06:47:54.341Z,98761.08
2023-08-29T06:50:21.149Z,98758.62
2023-08-29T06:52:47.954Z,98755.33
2023-08-29T06:55:15.435Z,98756.70
2023-08-29T06:57:42.075Z,98758.94
2023-08-29T07:00:11.378Z,98758.01
2023-08-29T07:02:38.251Z,98760.80
2023-08-29T07:05:05.517Z,98760.51
2023-08-29T07:07:32.514Z,98756.67
2023-08-29T07:09:59.554Z,98756.65
2023-08-29T07:12:26.334Z,98759.84
2023-08-29T07:14:53.171Z,98758.61
2023-08-29T07:17:20.112Z,98757.45
2023-08-29T07:19:46.794Z,98754.85
2023-08-29T07:24:44.306Z,98755.33
2023-08-29T07:27:11.574Z,98755.88
2023-08-29T07:29:38.464Z,98763.77
2023-08-29T07:32:05.660Z,98762.67
2023-08-29T07:34:32.245Z,98764.27
2023-08-29T07:36:59.108Z,98762.15
2023-08-29T07:39:25.954Z,98762.74
2023-08-29T07:41:52.626Z,98760.22
2023-08-29T07:44:19.517Z,98759.68
2023-08-29T07:47:03.118Z,98753.47
2023-08-29T07:49:32.974Z,98758.22
2023-08-29T07:51:59.760Z,98763.66
2023-08-29T07:54:26.607Z,98762.40
2023-08-29T07:56:53.803Z,98765.46
2023-08-29T07:59:21.274Z,98764.83
2023-08-29T08:01:49.211Z,98759.61
2023-08-29T08:04:16.002Z,98761.71
2023-08-29T08:06:42.742Z,98762.84
2023-08-29T08:09:09.652Z,98759.73
2023-08-29T08:11:36.292Z,98761.04
2023-08-29T08:14:03.753Z,98762.47
2023-08-29T08:16:30.648Z,98756.91
2023-08-29T08:18:57.569Z,98752.13
2023-08-29T08:21:24.326Z,98757.73
2023-08-29T08:23:51.175Z,98757.55
2023-08-29T08:26:18.009Z,98757.40
2023-08-29T08:28:44.750Z,98763.19
2023-08-29T08:31:11.803Z,98760.02
2023-08-29T08:33:41.334Z,98755.38
2023-08-29T08:36:08.360Z,98752.77
2023-08-29T08:38:35.180Z,98754.30
2023-08-29T08:41:01.932Z,98754.38
2023-08-29T08:43:29.783Z,98751.66
2023-08-29T08:45:56.790Z,98752.29
2023-08-29T08:48:23.685Z,98754.20
2023-08-29T08:50:50.787Z,98750.58
2023-08-29T08:53:23.322Z,98748.91
2023-08-29T08:55:50.200Z,98752.19
2023-08-29T08:58:18.606Z,98750.21
2023-08-29T09:00:45.333Z,98752.07
2023-08-29T09:03:15.261Z,98750.84
2023-08-29T09:05:42.586Z,98750.29
2023-08-29T09:08:09.338Z,98746.76
2023-08-29T09:10:39.874Z,98749.02
2023-08-29T09:13:06.658Z,98749.98
2023-08-29T09:15:35.217Z,98744.31
2023-08-29T09:18:02.078Z,98745.47
2023-08-29T09:20:29.804Z,98746.67
2023-08-29T09:22:56.636Z,98743.25
2023-08-29T09:25:26.055Z,98745.40
2023-08-29T09:27:53.712Z,98748.27
2023-08-29T09:30:20.606Z,98745.41
2023-08-29T09:32:48.789Z,98744.80
2023-08-29T09:35:16.839Z,98747.90
2023-08-29T09:37:51.437Z,98746.45
2023-08-29T09:40:36.352Z,98745.73
2023-08-29T09:43:05.190Z,98747.67
2023-08-29T09:45:32.289Z,98752.82
2023-08-29T09:48:02.964Z,98750.14
2023-08-29T09:50:30.655Z,98746.27
2023-08-29T09:52:57.591Z,98744.92
2023-08-29T09:55:24.613Z,98746.84
2023-08-29T09:57:51.477Z,98745.48
2023-08-29T10:00:20.708Z,98744.52
2023-08-29T10:02:47.805Z,98742.91
2023-08-29T10:05:15.250Z,98735.42
2023-08-29T10:07:47.351Z,98735.48
2023-08-29T10:10:14.074Z,98735.35
2023-08-29T10:12:41.027Z,98737.58
2023-08-29T10:15:08.753Z,98739.42
2023-08-29T10:23:08.830Z,98738.62
2023-08-29T10:25:36.323Z,98740.13
2023-08-29T10:28:03.911Z,98738.92
2023-08-29T10:30:31.078Z,98739.96
2023-08-29T10:32:58.018Z,98738.48
2023-08-29T10:35:24.907Z,98745.66
2023-08-29T10:37:54.588Z,98748.48
2023-08-29T10:40:24.599Z,98749.41
2023-08-29T10:42:56.167Z,98754.46
2023-08-29T10:45:43.426Z,98752.86
2023-08-29T10:48:15.901Z,98750.63
2023-08-29T10:51:04.289Z,98751.48
2023-08-29T10:53:32.356Z,98745.03
2023-08-29T10:56:04.528Z,98742.06
2023-08-29T10:58:41.141Z,98739.98
2023-08-29T11:01:28.669Z,98742.23
2023-08-29T11:03:56.192Z,98743.14
2023-08-29T11:06:27.275Z,98744.11
2023-08-29T11:09:17.528Z,98737.66
2023-08-29T11:11:44.370Z,98734.77
2023-08-29T11:14:11.182Z,98734.36
2023-08-29T11:16:38.772Z,98731.14
2023-08-29T11:19:12.949Z,98736.27
2023-08-29T11:21:40.760Z,98741.37
2023-08-29T11:26:41.160Z,98737.25
2023-08-29T11:29:08.410Z,98731.39
2023-08-29T11:31:53.240Z,98729.34
2023-08-29T11:34:21.616Z,98731.57
2023-08-29T11:36:49.497Z,98733.70
2023-08-29T11:39:19.220Z,98730.55
2023-08-29T11:42:07.530Z,98735.52
2023-08-29T11:44:59.685Z,98732.02
2023-08-29T11:47:21.303Z,98728.48
2023-08-29T11:49:50.962Z,98727.15
2023-08-29T11:52:21.053Z,98723.33
2023-08-29T11:54:48.738Z,98721.27
2023-08-29T11:57:16.175Z,98716.77
2023-08-29T11:59:43.944Z,98718.27
2023-08-29T12:02:17.753Z,98714.02
2023-08-29T12:04:47.562Z,98708.92
2023-08-29T12:07:15.417Z,98704.72
2023-08-29T12:09:43.671Z,98706.45
2023-08-29T12:12:34.927Z,98703.23
2023-08-29T12:15:41.899Z,98706.45
2023-08-29T12:18:21.141Z,98705.55
2023-08-29T12:20:48.407Z,98704.55
2023-08-29T12:23:30.215Z,98701.85
2023-08-29T12:26:01.791Z,98698.73
2023-08-29T12:28:28.755Z,98699.61
2023-08-29T12:30:57.182Z,98699.77
2023-08-29T12:33:24.221Z,98702.86
2023-08-29T12:35:51.176Z,98702.30
2023-08-29T12:38:18.922Z,98697.01
2023-08-29T12:40:46.000Z,98694.33
2023-08-29T12:43:13.640Z,98692.14
2023-08-29T12:45:52.719Z,98693.95
2023-08-29T12:48:23.854Z,98693.05
2023-08-29T12:50:50.634Z,98691.45
2023-08-29T12:53:17.695Z,98695.20
2023-08-29T12:55:44.341Z,98692.45
2023-08-29T12:58:11.152Z,98692.58
2023-08-29T13:00:38.827Z,98688.61
2023-08-29T13:03:06.873Z,98689.88
2023-08-29T13:05:33.993Z,98692.82
2023-08-29T13:08:00.753Z,98689.27
2023-08-29T13:10:29.291Z,98689.39
2023-08-29T13:12:56.022Z,98688.05
2023-08-29T13:15:24.004Z,98688.81
2023-08-29T13:17:53.755Z,98690.11
2023-08-29T13:20:20.407Z,98694.95
2023-08-29T13:22:47.405Z,98691.04
2023-08-29T13:25:14.063Z,98692.88
2023-08-29T13:27:40.847Z,98692.73
2023-08-29T13:30:09.036Z,98689.81
2023-08-29T13:32:35.811Z,98689.42
2023-08-29T13:35:03.875Z,98689.02
2023-08-29T13:37:30.738Z,98684.23
2023-08-29T13:39:57.433Z,98679.13
2023-08-29T13:42:24.513Z,98678.47
2023-08-29T13:44:55.212Z,98684.45
2023-08-29T13:47:22.849Z,98682.98
2023-08-29T13:49:49.657Z,98683.08
2023-08-29T13:52:16.565Z,98674.78
2023-08-29T13:54:43.272Z,98670.12
2023-08-29T13:57:09.934Z,98670.38
2023-08-29T13:59:36.591Z,98671.55
2023-08-29T14:02:03.709Z,98668.33
2023-08-29T14:04:30.550Z,98664.10
2023-08-29T14:06:57.286Z,98666.23
2023-08-29T14:09:24.025Z,98661.96
2023-08-29T14:11:50.801Z,98658.63
2023-08-29T14:14:17.793Z,98656.41
2023-08-29T14:16:44.782Z,98661.57
2023-08-29T14:19:11.481Z,98663.69
2023-08-29T14:21:38.191Z,98664.26
2023-08-29T14:24:05.208Z,98662.14
2023-08-29T14:26:32.046Z,98664.39
2023-08-29T14:29:09.005Z,98664.52
2023-08-29T14:31:35.681Z,98660.29
2023-08-29T14:34:02.609Z,98661.29
2023-08-29T14:36:32.697Z,98654.75
2023-08-29T14:39:01.676Z,98660.52
2023-08-29T14:41:29.027Z,98657.16
2023-08-29T14:43:56.311Z,98654.63
2023-08-29T14:46:23.393Z,98648.11
2023-08-29T14:48:50.268Z,98645.06
2023-08-29T14:51:17.214Z,98648.69
2023-08-29T14:53:44.164Z,98643.80
2023-08-29T14:56:11.030Z,98641.95
2023-08-29T14:58:37.734Z,98640.27
2023-08-29T15:01:04.714Z,98640.04
2023-08-29T15:03:31.697Z,98641.67
2023-08-29T15:05:58.600Z,98642.04
2023-08-29T15:08:26.595Z,98640.81
2023-08-29T15:10:53.949Z,98638.80
2023-08-29T15:13:21.795Z,98637.44
2023-08-29T15:15:48.703Z,98636.45
2023-08-29T15:18:16.488Z,98636.16
2023-08-29T15:20:43.392Z,98634.92
2023-08-29T15:23:15.855Z,98630.83
2023-08-29T15:25:42.962Z,98629.35
2023-08-29T15:28:10.723Z,98629.09
2023-08-29T15:30:38.812Z,98627.14
2023-08-29T15:33:05.789Z,98625.03
2023-08-29T15:35:32.575Z,98623.89
2023-08-29T15:37:59.408Z,98622.76
2023-08-29T15:40:26.245Z,98619.29
2023-08-29T15:42:53.069Z,98615.75
2023-08-29T15:45:19.786Z,98615.42
2023-08-29T15:47:46.759Z,98612.10
2023-08-29T15:50:14.654Z,98614.65
2023-08-29T15:52:41.488Z,98615.80
2023-08-29T15:55:08.712Z,98614.78
2023-08-29T15:57:35.423Z,98615.24
2023-08-29T16:00:10.009Z,98611.98
2023-08-29T16:02:36.984Z,98610.20
2023-08-29T16:05:03.916Z,98611.57
2023-08-29T16:07:30.968Z,98610.61
2023-08-29T16:09:58.354Z,98613.21
2023-08-29T16:12:27.105Z,98614.37
2023-08-29T16:14:54.148Z,98613.14
2023-08-29T16:17:20.915Z,98615.28
2023-08-29T16:19:47.699Z,98614.66
2023-08-29T16:22:14.426Z,98614.01
2023-08-29T16:24:41.289Z,98612.20
2023-08-29T16:27:07.900Z,98615.64
2023-08-29T16:29:34.932Z,98618.11
2023-08-29T16:32:01.762Z,98613.90
2023-08-29T16:34:28.655Z,98617.63
2023-08-29T16:36:55.333Z,98617.75
2023-08-29T16:39:22.048Z,98619.38
2023-08-29T16:41:49.701Z,98625.98
2023-08-29T16:44:18.005Z,98630.66
2023-08-29T16:46:44.821Z,98633.95
2023-08-29T16:49:11.732Z,98635.95
2023-08-29T16:51:39.267Z,98636.09
2023-08-29T16:54:06.361Z,98634.77
2023-08-29T16:56:33.176Z,98637.70
2023-08-29T16:59:00.017Z,98641.36
2023-08-29T17:01:26.823Z,98645.05
2023-08-29T17:03:53.552Z,98650.51
2023-08-29T17:06:20.378Z,98651.79
2023-08-29T17:08:47.667Z,98652.02
2023-08-29T17:11:14.792Z,98652.02
2023-08-29T17:13:44.392Z,98649.63
2023-08-29T17:16:11.359Z,98648.96
2023-08-29T17:18:38.074Z,98655.66
2023-08-29T17:21:05.124Z,98654.25
2023-08-29T17:23:31.821Z,98652.02
2023-08-29T17:25:58.736Z,98653.63
2023-08-29T17:28:25.584Z,98652.55
2023-08-29T17:30:52.421Z,98653.88
2023-08-29T17:33:19.724Z,98656.63
2023-08-29T17:35:47.438Z,98657.83
2023-08-29T17:38:14.251Z,98658.88
2023-08-29T17:40:41.253Z,98662.82
2023-08-29T17:43:07.958Z,98661.61
2023-08-29T17:45:39.118Z,98656.95
2023-08-29T17:48:06.404Z,98654.91
2023-08-29T17:50:33.571Z,98655.67
2023-08-29T17:53:00.318Z,98660.71
2023-08-29T17:55:28.178Z,98659.33
2023-08-29T17:57:55.418Z,98661.71
2023-08-29T18:00:22.612Z,98652.98
2023-08-29T18:02:49.687Z,98648.23
2023-08-29T18:05:16.599Z,98646.08
2023-08-29T18:07:43.633Z,98648.16
2023-08-29T18:10:13.646Z,98642.38
2023-08-29T18:12:40.828Z,98645.91
2023-08-29T18:15:08.275Z,98640.31
2023-08-29T18:17:35.260Z,98642.70
2023-08-29T18:20:02.510Z,98642.41
2023-08-29T18:22:29.591Z,98638.46
2023-08-29T18:24:56.408Z,98638.63
2023-08-29T18:27:23.740Z,98640.15
2023-08-29T18:29:50.788Z,98638.29
2023-08-29T18:32:18.105Z,98639.29
2023-08-29T18:34:45.110Z,98636.34
2023-08-29T18:37:12.168Z,98633.96
2023-08-29T18:39:39.064Z,98632.83
2023-08-29T18:42:06.485Z,98633.08
2023-08-29T18:44:36.833Z,98633.23
2023-08-29T18:47:04.815Z,98630.52
2023-08-29T18:49:35.908Z,98628.13
2023-08-29T18:52:03.075Z,98629.46
2023-08-29T18:54:33.300Z,98638.04
2023-08-29T18:57:01.162Z,98635.79
2023-08-29T18:59:28.132Z,98632.15
2023-08-29T19:01:54.950Z,98629.91
2023-08-29T19:04:21.715Z,98626.47
2023-08-29T19:06:48.347Z,98623.23
2023-08-29T19:09:15.084Z,98620.63
2023-08-29T19:11:41.888Z,98619.88
2023-08-29T19:14:08.653Z,98620.37
2023-08-29T19:16:35.646Z,98620.58
2023-08-29T19:19:04.578Z,98625.08
2023-08-29T19:21:31.462Z,98620.98
2023-08-29T19:24:00.634Z,98627.33
2023-08-29T19:26:27.716Z,98631.36
2023-08-29T19:28:54.620Z,98638.39
2023-08-29T19:31:21.545Z,98634.95
2023-08-29T19:33:48.191Z,98633.96
2023-08-29T19:36:16.740Z,98628.45
2023-08-29T19:38:43.614Z,98628.44
2023-08-29T19:41:12.719Z,98631.52
2023-08-29T19:43:39.513Z,98630.48
2023-08-29T19:46:06.160Z,98630.48
2023-08-29T19:48:33.320Z,98625.83
2023-08-29T19:50:59.920Z,98628.63
2023-08-29T19:53:27.072Z,98631.01
2023-08-29T19:55:54.260Z,98636.73
2023-08-29T19:58:22.035Z,98636.95
2023-08-29T20:00:50.402Z,98635.73
2023-08-29T20:03:17.941Z,98635.20
2023-08-29T20:05:45.075Z,98635.16
2023-08-29T20:08:14.653Z,98638.14
2023-08-29T20:10:41.810Z,98635.95
2023-08-29T20:13:08.651Z,98640.67
2023-08-29T20:15:41.108Z,98640.39
2023-08-29T20:18:08.434Z,98640.29
2023-08-29T20:20:35.481Z,98637.63
2023-08-29T20:23:03.227Z,98640.28
2023-08-29T20:25:30.313Z,98639.43
2023-08-29T20:27:57.159Z,98638.05
2023-08-29T20:30:24.674Z,98638.39
2023-08-29T20:32:52.289Z,98639.39
2023-08-29T20:35:19.128Z,98639.94
2023-08-29T20:37:46.166Z,98642.11
2023-08-29T20:40:13.027Z,98638.07
2023-08-29T20:42:39.966Z,98639.53
2023-08-29T20:45:07.482Z,98643.36
2023-08-29T20:47:35.907Z,98645.52
2023-08-29T20:50:02.978Z,98645.27
2023-08-29T20:52:29.960Z,98649.09
2023-08-29T20:54:56.714Z,98648.67
2023-08-29T20:57:23.512Z,98646.23
2023-08-29T20:59:50.325Z,98649.34
2023-08-29T21:02:16.962Z,98654.56
2023-08-29T21:04:44.272Z,98655.19
2023-08-29T21:07:11.317Z,98654.68
2023-08-29T21:09:38.243Z,98652.12
2023-08-29T21:12:05.605Z,98651.23
2023-08-29T21:14:32.375Z,98654.05
2023-08-29T21:16:59.303Z,98656.20
2023-08-29T21:19:29.125Z,98657.20
2023-08-29T21:21:56.479Z,98655.66
2023-08-29T21:24:23.130Z,98659.20
2023-08-29T21:26:49.888Z,98659.19
2023-08-29T21:29:16.625Z,98657.52
2023-08-29T21:31:43.358Z,98658.55
2023-08-29T21:34:10.190Z,98655.50
2023-08-29T21:36:38.770Z,98661.27
2023-08-29T21:39:10.302Z,98661.20
2023-08-29T21:41:40.617Z,98664.26
2023-08-29T21:44:07.797Z,98662.13
2023-08-29T21:46:34.542Z,98657.48
2023-08-29T21:49:01.177Z,98654.30
2023-08-29T21:51:30.961Z,98654.77
2023-08-29T21:53:57.639Z,98654.64
2023-08-29T21:56:24.764Z,98651.27
2023-08-29T21:58:52.408Z,98649.85
2023-08-29T22:01:19.410Z,98650.21
2023-08-29T22:03:46.160Z,98649.88
2023-08-29T22:06:12.930Z,98650.25
2023-08-29T22:08:40.100Z,98650.13
2023-08-29T22:11:06.900Z,98650.90
2023-08-29T22:13:35.227Z,98644.70
2023-08-29T22:16:02.245Z,98639.52
2023-08-29T22:18:29.830Z,98636.70
2023-08-29T22:20:56.649Z,98635.78
2023-08-29T22:23:23.270Z,98634.61
2023-08-29T22:25:50.065Z,98632.83
2023-08-29T22:28:16.766Z,98634.85
2023-08-29T22:30:43.510Z,98640.23
2023-08-29T22:33:10.177Z,98639.12
2023-08-29T22:35:36.919Z,98636.90
2023-08-29T22:38:04.573Z,98635.44
2023-08-29T22:40:31.653Z,98638.16
2023-08-29T22:42:58.316Z,98635.11
2023-08-29T22:45:25.288Z,98638.33
2023-08-29T22:47:52.139Z,98635.84
2023-08-29T22:50:18.944Z,98638.48
2023-08-29T22:52:45.536Z,98640.81
2023-08-29T22:55:13.365Z,98636.94
2023-08-29T22:57:40.632Z,98636.20
2023-08-29T23:00:13.090Z,98632.42
2023-08-29T23:02:40.301Z,98627.98
2023-08-29T23:05:08.121Z,98625.15
2023-08-29T23:07:35.102Z,98625.48
2023-08-29T23:10:02.269Z,98623.79
2023-08-29T23:12:29.133Z,98624.25
2023-08-29T23:14:56.898Z,98624.19
2023-08-29T23:17:23.659Z,98622.95
2023-08-29T23:19:50.788Z,98622.02
2023-08-29T23:22:17.372Z,98621.10
2023-08-29T23:24:44.196Z,98624.94
2023-08-29T23:27:11.647Z,98627.93
2023-08-29T23:29:38.504Z,98631.81
2023-08-29T23:32:05.961Z,98628.73
2023-08-29T23:34:32.731Z,98624.52
2023-08-29T23:36:59.536Z,98625.73
2023-08-29T23:39:26.186Z,98624.83
2023-08-29T23:41:53.526Z,98626.77
2023-08-29T23:44:20.092Z,98626.55
2023-08-29T23:46:46.745Z,98630.59
2023-08-29T23:49:13.517Z,98637.43
2023-08-29T23:51:40.112Z,98642.48
2023-08-29T23:54:06.785Z,98644.56
2023-08-29T23:56:33.397Z,98643.33
2023-08-29T23:59:00.179Z,98641.44
